KBTM/BTM METAR and TAF weather

Enter ICAO airport designator
Station Type Date Time Source
KBTM METAR 2021/10/22 17:53 UTC NOAA

KBTM 221753Z AUTO 35003KT 10SM CLR 15/M01 A2993 RMK AO2 SLP114 T01501006 10150 21022 58023


Station Type Date Time Source
KBTM Decoded METAR 2021/10/22 17:53 UTC NOAA

BERT MOONEY AIRPORT, MT, United States (KBTM) 45-58N 112-30W 1688M
Oct 22, 2021 - 01:53 PM EDT / 2021.10.22 1753 UTC
Wind: from the N (350 degrees) at 3 MPH (3 KT):0
Visibility: 10 mile(s):0
Sky conditions: clear
Temperature: 59.0 F (15.0 C)
Dew Point: 30.9 F (-0.6 C)
Relative Humidity: 34%
Pressure (altimeter): 29.93 in. Hg (1013 hPa)
Pressure tendency: 0.07 inches (2.3 hPa) lower than three hours ago
ob: KBTM 221753Z AUTO 35003KT 10SM CLR 15/M01 A2993 RMK AO2 SLP114 T01501006 10150 21022 58023
cycle: 18

Station Type Date Time Source
KBTM TAF 2021/10/22 18:22 UTC NOAA

TAF KBTM 221720Z 2218/2318 17006KT P6SM SCT250
FM222100 18010G17KT P6SM BKN100 OVC250
FM230000 17010KT P6SM VCSH OVC100
FM230400 17005KT P6SM -SHRA BKN050 OVC100

Example: see airport list